createdAt,value
2022-12-08T00:01:21.044Z,71.90
2022-12-08T00:03:48.466Z,72.00
2022-12-08T00:06:54.975Z,72.00
2022-12-08T00:09:24.060Z,72.20
2022-12-08T00:11:51.834Z,72.10
2022-12-08T00:14:18.985Z,72.20
2022-12-08T00:16:45.995Z,71.90
2022-12-08T00:19:12.824Z,72.20
2022-12-08T00:21:39.656Z,72.20
2022-12-08T00:24:06.680Z,72.30
2022-12-08T00:26:33.505Z,72.20
2022-12-08T00:29:00.246Z,72.10
2022-12-08T00:31:27.088Z,72.40
2022-12-08T00:33:53.871Z,72.30
2022-12-08T00:36:20.774Z,72.60
2022-12-08T00:38:48.597Z,72.90
2022-12-08T00:41:41.369Z,73.00
2022-12-08T00:44:09.309Z,73.30
2022-12-08T00:46:36.511Z,73.30
2022-12-08T00:49:04.539Z,73.60
2022-12-08T00:51:31.271Z,73.60
2022-12-08T00:53:58.168Z,73.70
2022-12-08T00:56:25.214Z,73.70
2022-12-08T00:58:52.313Z,73.80
2022-12-08T01:01:19.174Z,73.80
2022-12-08T01:03:46.042Z,73.90
2022-12-08T01:06:12.942Z,73.80
2022-12-08T01:08:40.706Z,73.90
2022-12-08T01:11:10.368Z,73.90
2022-12-08T01:13:37.261Z,73.90
2022-12-08T01:16:04.534Z,73.80
2022-12-08T01:18:31.813Z,73.90
2022-12-08T01:21:06.135Z,73.70
2022-12-08T01:23:33.848Z,74.00
2022-12-08T01:26:06.068Z,73.70
2022-12-08T01:28:33.421Z,73.80
2022-12-08T01:31:01.455Z,73.90
2022-12-08T01:33:28.542Z,73.70
2022-12-08T01:35:55.896Z,74.10
2022-12-08T01:38:22.945Z,74.00
2022-12-08T01:40:49.837Z,74.10
2022-12-08T01:43:18.881Z,74.10
2022-12-08T01:45:45.933Z,74.10
2022-12-08T01:48:21.981Z,73.90
2022-12-08T01:50:49.753Z,73.90
2022-12-08T01:53:22.278Z,74.00
2022-12-08T01:55:57.978Z,73.90
2022-12-08T01:58:31.705Z,73.70
2022-12-08T02:00:58.617Z,74.00
2022-12-08T02:03:51.723Z,74.00
2022-12-08T02:06:20.576Z,74.20
2022-12-08T02:08:49.723Z,74.40
2022-12-08T02:11:17.162Z,74.20
2022-12-08T02:13:46.071Z,74.70
2022-12-08T02:16:21.960Z,74.50
2022-12-08T02:19:22.533Z,74.40
2022-12-08T02:22:08.960Z,74.50
2022-12-08T02:25:14.171Z,74.40
2022-12-08T02:27:53.234Z,74.50
2022-12-08T02:30:25.168Z,74.50
2022-12-08T02:33:13.031Z,74.70
2022-12-08T02:35:54.772Z,74.60
2022-12-08T02:38:56.790Z,74.60
2022-12-08T02:41:47.504Z,74.50
2022-12-08T02:44:32.358Z,74.60
2022-12-08T02:47:06.263Z,74.80
2022-12-08T02:49:34.084Z,74.90
2022-12-08T02:52:27.038Z,75.10
2022-12-08T02:54:58.692Z,75.00
2022-12-08T02:57:37.435Z,74.90
2022-12-08T03:00:07.676Z,75.10
2022-12-08T03:02:43.987Z,75.20
2022-12-08T03:05:38.604Z,75.10
2022-12-08T03:08:23.205Z,75.20
2022-12-08T03:11:16.114Z,75.10
2022-12-08T03:13:44.896Z,75.10
2022-12-08T03:16:16.595Z,75.20
2022-12-08T03:18:49.501Z,74.90
2022-12-08T03:21:18.380Z,75.00
2022-12-08T03:23:48.210Z,75.00
2022-12-08T03:26:27.424Z,75.10
2022-12-08T03:28:54.729Z,74.90
2022-12-08T03:31:24.151Z,75.00
2022-12-08T03:33:53.945Z,75.00
2022-12-08T03:36:20.939Z,74.90
2022-12-08T03:38:52.930Z,75.20
2022-12-08T03:41:21.468Z,75.20
2022-12-08T03:43:57.034Z,75.20
2022-12-08T03:48:51.395Z,75.40
2022-12-08T03:51:19.031Z,75.30
2022-12-08T03:53:46.864Z,75.00
2022-12-08T03:56:28.001Z,75.50
2022-12-08T03:58:55.452Z,75.40
2022-12-08T04:01:22.769Z,76.10
2022-12-08T04:03:49.751Z,75.50
2022-12-08T04:06:17.256Z,75.50
2022-12-08T04:08:44.203Z,76.20
2022-12-08T04:11:11.248Z,75.50
2022-12-08T04:13:39.217Z,75.70
2022-12-08T04:16:06.565Z,75.50
2022-12-08T04:18:35.055Z,75.70
2022-12-08T04:21:02.152Z,75.60
2022-12-08T04:23:28.895Z,75.80
2022-12-08T04:25:55.737Z,75.70
2022-12-08T04:28:22.681Z,75.70
2022-12-08T04:30:49.996Z,75.70
2022-12-08T04:33:17.273Z,75.50
2022-12-08T04:35:44.133Z,75.90
2022-12-08T04:38:10.932Z,75.70
2022-12-08T04:40:37.714Z,75.70
2022-12-08T04:43:04.721Z,75.70
2022-12-08T04:45:32.144Z,75.80
2022-12-08T04:48:02.275Z,75.70
2022-12-08T04:50:29.103Z,75.80
2022-12-08T04:52:55.769Z,75.90
2022-12-08T04:55:22.664Z,76.00
2022-12-08T04:57:49.868Z,76.00
2022-12-08T05:00:16.876Z,75.90
2022-12-08T05:02:43.666Z,76.10
2022-12-08T05:05:10.705Z,76.10
2022-12-08T05:07:37.973Z,76.30
2022-12-08T05:10:05.882Z,76.40
2022-12-08T05:12:33.130Z,76.50
2022-12-08T05:14:59.913Z,76.50
2022-12-08T05:17:26.788Z,76.60
2022-12-08T05:19:53.663Z,77.30
2022-12-08T05:22:20.450Z,76.50
2022-12-08T05:24:47.943Z,76.60
2022-12-08T05:27:15.111Z,76.70
2022-12-08T05:29:42.366Z,76.60
2022-12-08T05:32:09.244Z,76.60
2022-12-08T05:34:36.098Z,76.60
2022-12-08T05:37:02.932Z,76.60
2022-12-08T05:39:29.736Z,76.40
2022-12-08T05:41:56.412Z,76.40
2022-12-08T05:44:23.204Z,76.30
2022-12-08T05:46:50.252Z,76.30
2022-12-08T05:49:17.224Z,76.20
2022-12-08T05:51:43.929Z,76.30
2022-12-08T05:54:11.033Z,76.20
2022-12-08T05:56:37.880Z,76.30
2022-12-08T05:59:08.254Z,76.20
2022-12-08T06:01:35.459Z,76.20
2022-12-08T06:04:03.789Z,76.20
2022-12-08T06:06:31.702Z,76.20
2022-12-08T06:08:58.494Z,76.10
2022-12-08T06:11:28.319Z,76.10
2022-12-08T06:13:56.712Z,76.00
2022-12-08T06:16:24.720Z,76.10
2022-12-08T06:18:51.920Z,75.90
2022-12-08T06:21:19.746Z,75.90
2022-12-08T06:23:51.123Z,76.00
2022-12-08T06:26:18.224Z,76.00
2022-12-08T06:28:45.575Z,75.80
2022-12-08T06:31:17.075Z,75.80
2022-12-08T06:33:44.027Z,75.70
2022-12-08T06:36:13.530Z,75.80
2022-12-08T06:38:43.507Z,75.70
2022-12-08T06:41:11.516Z,75.60
2022-12-08T06:43:38.626Z,75.90
2022-12-08T06:46:07.761Z,76.00
2022-12-08T06:48:34.654Z,75.70
2022-12-08T06:51:27.508Z,75.80
2022-12-08T06:53:54.145Z,75.70
2022-12-08T06:56:22.918Z,75.80
2022-12-08T06:58:52.835Z,75.70
2022-12-08T07:01:20.046Z,75.80
2022-12-08T07:03:47.789Z,75.60
2022-12-08T07:06:18.805Z,75.80
2022-12-08T07:08:45.544Z,75.60
2022-12-08T07:11:18.103Z,75.70
2022-12-08T07:13:47.894Z,75.80
2022-12-08T07:16:15.059Z,75.50
2022-12-08T07:18:43.047Z,75.50
2022-12-08T07:21:13.075Z,75.30
2022-12-08T07:23:39.969Z,75.50
2022-12-08T07:26:09.981Z,75.60
2022-12-08T07:28:38.770Z,75.50
2022-12-08T07:31:06.659Z,75.30
2022-12-08T07:33:36.015Z,75.40
2022-12-08T07:36:05.341Z,75.30
2022-12-08T07:38:32.246Z,75.20
2022-12-08T07:40:59.283Z,75.00
2022-12-08T07:43:26.073Z,75.10
2022-12-08T07:45:52.967Z,75.30
2022-12-08T07:48:20.119Z,75.10
2022-12-08T07:50:47.579Z,75.00
2022-12-08T07:53:14.522Z,75.00
2022-12-08T07:55:43.259Z,74.90
2022-12-08T07:58:10.869Z,74.90
2022-12-08T08:00:37.799Z,74.80
2022-12-08T08:03:04.716Z,74.90
2022-12-08T08:05:31.629Z,74.80
2022-12-08T08:07:58.477Z,74.80
2022-12-08T08:10:25.607Z,74.80
2022-12-08T08:12:52.441Z,74.60
2022-12-08T08:15:21.090Z,74.50
2022-12-08T08:17:53.341Z,74.60
2022-12-08T08:20:20.967Z,74.40
2022-12-08T08:22:49.638Z,74.30
2022-12-08T08:25:17.045Z,74.40
2022-12-08T08:27:44.143Z,74.60
2022-12-08T08:30:19.647Z,74.40
2022-12-08T08:32:47.667Z,74.40
2022-12-08T08:35:14.715Z,74.10
2022-12-08T08:37:47.072Z,74.40
2022-12-08T08:40:15.717Z,74.30
2022-12-08T08:42:42.506Z,74.10
2022-12-08T08:45:09.826Z,74.40
2022-12-08T08:47:36.567Z,74.20
2022-12-08T08:50:04.706Z,74.10
2022-12-08T08:52:31.771Z,73.90
2022-12-08T08:54:58.564Z,74.00
2022-12-08T08:57:26.193Z,73.90
2022-12-08T08:59:53.788Z,74.10
2022-12-08T09:02:21.522Z,74.00
2022-12-08T09:04:48.640Z,73.70
2022-12-08T09:07:16.134Z,73.90
2022-12-08T09:09:43.514Z,73.90
2022-12-08T09:12:11.332Z,73.90
2022-12-08T09:14:38.201Z,73.80
2022-12-08T09:17:06.052Z,73.80
2022-12-08T09:19:32.880Z,73.80
2022-12-08T09:21:59.619Z,73.80
2022-12-08T09:24:26.734Z,73.60
2022-12-08T09:26:53.613Z,73.80
2022-12-08T09:29:20.406Z,73.80
2022-12-08T09:31:47.488Z,73.80
2022-12-08T09:34:15.882Z,73.80
2022-12-08T09:36:42.880Z,73.90
2022-12-08T09:39:09.832Z,73.90
2022-12-08T09:41:48.305Z,73.60
2022-12-08T09:44:44.792Z,73.50
2022-12-08T09:47:35.820Z,73.60
2022-12-08T09:50:26.950Z,73.70
2022-12-08T09:53:12.444Z,73.60
2022-12-08T09:55:52.638Z,73.50
2022-12-08T09:58:28.114Z,73.50
2022-12-08T10:00:55.253Z,73.60
2022-12-08T10:03:26.769Z,74.20
2022-12-08T10:06:06.375Z,73.60
2022-12-08T10:09:01.277Z,73.50
2022-12-08T10:12:01.662Z,73.70
2022-12-08T10:14:36.584Z,73.70
2022-12-08T10:17:24.434Z,73.60
2022-12-08T10:20:11.076Z,73.50
2022-12-08T10:22:44.342Z,73.60
2022-12-08T10:25:22.020Z,73.50
2022-12-08T10:27:52.242Z,73.40
2022-12-08T10:30:20.470Z,73.50
2022-12-08T10:32:50.909Z,73.90
2022-12-08T10:35:20.150Z,73.20
2022-12-08T10:37:59.273Z,73.20
2022-12-08T10:40:30.021Z,73.20
2022-12-08T10:42:59.467Z,72.90
2022-12-08T10:45:32.431Z,72.90
2022-12-08T10:48:03.438Z,72.90
2022-12-08T10:50:36.273Z,72.90
2022-12-08T10:53:14.733Z,72.80
2022-12-08T10:56:05.834Z,72.80
2022-12-08T10:58:41.000Z,72.60
2022-12-08T11:01:30.157Z,72.60
2022-12-08T11:04:27.767Z,72.60
2022-12-08T11:06:54.609Z,72.70
2022-12-08T11:09:21.401Z,72.90
2022-12-08T11:11:59.210Z,73.00
2022-12-08T11:14:28.916Z,72.50
2022-12-08T11:17:04.995Z,72.90
2022-12-08T11:19:31.818Z,73.10
2022-12-08T11:21:58.655Z,73.00
2022-12-08T11:24:31.309Z,73.00
2022-12-08T11:27:04.327Z,73.20
2022-12-08T11:29:33.623Z,73.10
2022-12-08T11:32:14.694Z,73.30
2022-12-08T11:35:00.136Z,73.20
2022-12-08T11:37:42.586Z,73.40
2022-12-08T11:40:23.411Z,73.50
2022-12-08T11:43:17.785Z,73.50
2022-12-08T11:45:44.778Z,73.70
2022-12-08T11:48:23.969Z,73.50
2022-12-08T11:51:00.557Z,73.80
2022-12-08T11:53:33.238Z,73.70
2022-12-08T11:56:13.116Z,73.80
2022-12-08T11:58:50.514Z,73.80
2022-12-08T12:01:21.349Z,73.50
2022-12-08T12:03:57.561Z,73.60
2022-12-08T12:06:57.827Z,73.40
2022-12-08T12:09:34.320Z,73.30
2022-12-08T12:12:22.042Z,73.30
2022-12-08T12:15:13.741Z,73.10
2022-12-08T12:17:46.472Z,73.00
2022-12-08T12:20:21.285Z,72.90
2022-12-08T12:22:53.241Z,72.70
2022-12-08T12:25:23.623Z,72.50
2022-12-08T12:27:57.076Z,73.00
2022-12-08T12:30:31.108Z,72.60
2022-12-08T12:33:00.693Z,72.50
2022-12-08T12:35:41.449Z,72.30
2022-12-08T12:39:04.411Z,72.50
2022-12-08T12:41:53.690Z,72.50
2022-12-08T12:44:29.581Z,72.30
2022-12-08T12:47:11.221Z,72.50
2022-12-08T12:49:40.977Z,72.70
2022-12-08T12:52:10.590Z,72.50
2022-12-08T12:55:02.215Z,72.40
2022-12-08T12:57:52.662Z,72.20
2022-12-08T13:00:28.816Z,71.80
2022-12-08T13:02:58.544Z,72.00
2022-12-08T13:05:36.182Z,72.00
2022-12-08T13:08:16.115Z,71.40
2022-12-08T13:10:58.177Z,71.00
2022-12-08T13:13:25.071Z,70.70
2022-12-08T13:15:58.725Z,70.60
2022-12-08T13:18:38.050Z,70.50
2022-12-08T13:21:14.937Z,70.40
2022-12-08T13:23:45.418Z,70.30
2022-12-08T13:26:23.880Z,70.20
2022-12-08T13:29:03.680Z,70.40
2022-12-08T13:31:45.094Z,70.40
2022-12-08T13:34:33.052Z,70.30
2022-12-08T13:37:11.737Z,69.80
2022-12-08T13:39:47.420Z,69.80
2022-12-08T13:42:23.121Z,69.90
2022-12-08T13:48:23.522Z,70.10
2022-12-08T13:54:45.372Z,69.80
2022-12-08T13:59:20.795Z,70.20
2022-12-08T14:01:49.580Z,70.50
2022-12-08T14:04:42.580Z,70.50
2022-12-08T14:07:11.110Z,70.80
2022-12-08T14:09:38.313Z,70.60
2022-12-08T14:12:19.737Z,70.80
2022-12-08T14:15:05.210Z,71.00
2022-12-08T14:17:33.276Z,70.90
2022-12-08T14:20:12.298Z,70.80
2022-12-08T14:22:40.907Z,70.60
2022-12-08T14:25:15.020Z,70.50
2022-12-08T14:27:42.478Z,70.40
2022-12-08T14:30:18.999Z,70.00
2022-12-08T14:32:49.947Z,70.20
2022-12-08T14:35:30.296Z,70.20
2022-12-08T14:38:00.081Z,70.30
2022-12-08T14:40:36.989Z,70.10
2022-12-08T14:43:13.631Z,70.00
2022-12-08T14:45:43.423Z,69.80
2022-12-08T14:48:26.087Z,70.00
2022-12-08T14:51:11.309Z,70.00
2022-12-08T14:54:01.115Z,70.00
2022-12-08T14:56:38.608Z,70.30
2022-12-08T14:59:13.669Z,69.80
2022-12-08T15:01:41.883Z,70.10
2022-12-08T15:04:14.688Z,70.20
2022-12-08T15:07:11.919Z,70.30
2022-12-08T15:09:44.512Z,70.40
2022-12-08T15:12:14.270Z,70.60
2022-12-08T15:14:43.999Z,70.70
2022-12-08T15:17:32.327Z,71.10
2022-12-08T15:20:01.037Z,70.90
2022-12-08T15:22:29.544Z,70.90
2022-12-08T15:24:57.443Z,70.90
2022-12-08T15:27:25.791Z,71.30
2022-12-08T15:29:53.299Z,71.30
2022-12-08T15:32:22.701Z,71.30
2022-12-08T15:34:50.367Z,71.50
2022-12-08T15:37:26.588Z,71.30
2022-12-08T15:39:53.795Z,71.30
2022-12-08T15:42:20.730Z,71.40
2022-12-08T15:44:47.863Z,71.50
2022-12-08T15:47:18.358Z,71.50
2022-12-08T15:49:46.064Z,71.70
2022-12-08T15:52:15.418Z,72.10
2022-12-08T15:54:42.364Z,72.00
2022-12-08T15:58:17.008Z,72.00
2022-12-08T16:00:51.134Z,72.20
2022-12-08T16:03:42.518Z,72.10
2022-12-08T16:09:11.637Z,72.70
2022-12-08T16:12:06.510Z,72.40
2022-12-08T16:15:46.697Z,72.40
2022-12-08T16:17:21.199Z,72.40
2022-12-08T16:19:48.064Z,72.20
2022-12-08T16:25:21.787Z,72.20
2022-12-08T16:28:36.769Z,72.20
2022-12-08T16:30:38.771Z,72.10
2022-12-08T16:33:05.618Z,72.20
2022-12-08T16:35:32.672Z,72.00
2022-12-08T16:37:59.556Z,71.70
2022-12-08T16:40:26.299Z,71.60
2022-12-08T16:42:53.458Z,71.80
2022-12-08T16:45:23.251Z,71.80
2022-12-08T16:47:54.797Z,71.90
2022-12-08T16:50:23.947Z,71.70
2022-12-08T16:52:56.024Z,71.90
2022-12-08T16:55:22.831Z,71.90
2022-12-08T16:57:49.878Z,72.10
2022-12-08T17:00:22.326Z,72.20
2022-12-08T17:02:49.049Z,72.30
2022-12-08T17:05:18.393Z,72.40
2022-12-08T17:07:46.745Z,72.30
2022-12-08T17:10:18.768Z,72.10
2022-12-08T17:12:46.332Z,72.60
2022-12-08T17:15:16.762Z,72.80
2022-12-08T17:17:43.960Z,72.80
2022-12-08T17:20:16.245Z,72.60
2022-12-08T17:22:43.902Z,72.60
2022-12-08T17:25:10.739Z,72.40
2022-12-08T17:27:37.986Z,72.10
2022-12-08T17:30:06.936Z,72.00
2022-12-08T17:32:33.957Z,71.80
2022-12-08T17:35:01.027Z,71.60
2022-12-08T17:37:27.813Z,71.60
2022-12-08T17:39:54.555Z,71.70
2022-12-08T17:42:25.902Z,71.60
2022-12-08T17:44:53.352Z,71.70
2022-12-08T17:47:20.307Z,71.70
2022-12-08T17:49:47.146Z,71.50
2022-12-08T17:52:14.093Z,71.20
2022-12-08T17:54:40.888Z,71.20
2022-12-08T17:57:07.777Z,71.20
2022-12-08T17:59:34.463Z,71.20
2022-12-08T18:02:01.371Z,71.20
2022-12-08T18:04:28.410Z,71.20
2022-12-08T18:06:55.433Z,71.00
2022-12-08T18:09:22.259Z,71.00
2022-12-08T18:11:49.141Z,70.90
2022-12-08T18:14:16.909Z,71.10
2022-12-08T18:16:46.202Z,71.30
2022-12-08T18:19:14.125Z,71.30
2022-12-08T18:21:41.633Z,71.30
2022-12-08T18:24:14.519Z,71.10
2022-12-08T18:26:41.399Z,71.30
2022-12-08T18:29:08.204Z,71.20
2022-12-08T18:31:35.006Z,71.20
2022-12-08T18:34:02.811Z,71.30
2022-12-08T18:36:29.603Z,71.40
2022-12-08T18:38:56.290Z,71.40
2022-12-08T18:41:25.776Z,71.40
2022-12-08T18:43:54.383Z,71.40
2022-12-08T18:46:22.217Z,71.20
2022-12-08T18:48:50.884Z,71.20
2022-12-08T18:51:22.622Z,71.10
2022-12-08T18:53:49.740Z,71.10
2022-12-08T18:56:31.484Z,70.90
2022-12-08T18:59:04.375Z,70.90
2022-12-08T19:01:36.068Z,70.90
2022-12-08T19:04:27.492Z,70.80
2022-12-08T19:06:53.208Z,70.70
2022-12-08T19:09:20.670Z,71.10
2022-12-08T19:11:47.458Z,71.00
2022-12-08T19:14:14.200Z,71.00
2022-12-08T19:16:41.245Z,70.90
2022-12-08T19:19:08.087Z,70.70
2022-12-08T19:21:34.843Z,70.80
2022-12-08T19:24:01.591Z,70.90
2022-12-08T19:26:28.930Z,70.80
2022-12-08T19:28:56.199Z,70.80
2022-12-08T19:31:23.014Z,70.80
2022-12-08T19:33:49.973Z,70.70
2022-12-08T19:36:19.459Z,70.80
2022-12-08T19:39:05.061Z,70.80
2022-12-08T19:41:50.891Z,71.00
2022-12-08T19:44:46.407Z,71.00
2022-12-08T19:47:15.086Z,71.00
2022-12-08T19:49:41.986Z,71.00
2022-12-08T19:52:08.928Z,70.90
2022-12-08T19:54:35.721Z,70.90
2022-12-08T19:57:02.790Z,70.90
2022-12-08T19:59:30.354Z,70.90
2022-12-08T20:01:58.656Z,70.80
2022-12-08T20:04:27.304Z,70.90
2022-12-08T20:06:55.964Z,70.90
2022-12-08T20:09:23.997Z,70.80
2022-12-08T20:11:51.114Z,70.90
2022-12-08T20:14:23.126Z,71.00
2022-12-08T20:16:50.820Z,70.90
2022-12-08T20:19:17.885Z,70.80
2022-12-08T20:21:44.665Z,70.90
2022-12-08T20:24:11.522Z,70.80
2022-12-08T20:26:38.483Z,71.10
2022-12-08T20:29:05.315Z,71.10
2022-12-08T20:31:33.175Z,71.00
2022-12-08T20:34:00.729Z,71.20
2022-12-08T20:36:27.921Z,71.10
2022-12-08T20:38:55.434Z,71.10
2022-12-08T20:41:23.458Z,71.10
2022-12-08T20:43:51.011Z,71.20
2022-12-08T20:46:19.300Z,71.20
2022-12-08T20:48:46.605Z,71.00
2022-12-08T20:51:18.857Z,71.00
2022-12-08T20:53:46.121Z,70.90
2022-12-08T20:56:21.760Z,70.90
2022-12-08T20:58:49.851Z,70.70
2022-12-08T21:01:20.012Z,71.00
2022-12-08T21:03:48.299Z,71.00
2022-12-08T21:06:15.755Z,70.90
2022-12-08T21:08:43.015Z,70.70
2022-12-08T21:11:10.947Z,70.70
2022-12-08T21:13:39.384Z,71.10
2022-12-08T21:16:09.280Z,70.80
2022-12-08T21:18:39.685Z,70.80
2022-12-08T21:21:12.733Z,70.90
2022-12-08T21:23:40.805Z,70.90
2022-12-08T21:26:16.556Z,70.80
2022-12-08T21:28:43.856Z,70.70
2022-12-08T21:31:12.987Z,70.70
2022-12-08T21:33:40.240Z,70.70
2022-12-08T21:36:11.706Z,70.80
2022-12-08T21:38:40.096Z,70.90
2022-12-08T21:41:10.688Z,70.80
2022-12-08T21:43:38.048Z,70.80
2022-12-08T21:46:06.009Z,70.70
2022-12-08T21:48:32.935Z,70.80
2022-12-08T21:51:08.687Z,70.90
2022-12-08T21:53:35.445Z,70.70
2022-12-08T21:56:02.285Z,70.80
2022-12-08T21:58:31.943Z,70.70
2022-12-08T22:01:05.713Z,70.80
2022-12-08T22:03:32.810Z,70.70
2022-12-08T22:06:07.891Z,70.70
2022-12-08T22:08:35.417Z,70.70
2022-12-08T22:11:02.949Z,70.70
2022-12-08T22:13:30.021Z,70.70
2022-12-08T22:15:59.414Z,70.80
2022-12-08T22:18:26.426Z,70.60
2022-12-08T22:20:54.980Z,70.70
2022-12-08T22:23:22.468Z,70.80
2022-12-08T22:26:02.930Z,70.80
2022-12-08T22:28:35.051Z,70.60
2022-12-08T22:31:07.547Z,71.20
2022-12-08T22:33:34.358Z,70.60
2022-12-08T22:36:09.829Z,70.70
2022-12-08T22:38:37.367Z,70.80
2022-12-08T22:41:05.647Z,70.70
2022-12-08T22:43:32.857Z,70.70
2022-12-08T22:45:59.916Z,70.70
2022-12-08T22:48:26.791Z,70.60
2022-12-08T22:50:59.665Z,70.80
2022-12-08T22:53:26.573Z,70.90
2022-12-08T22:55:53.818Z,70.90
2022-12-08T22:58:20.828Z,70.70
2022-12-08T23:00:47.834Z,70.60
2022-12-08T23:03:14.801Z,70.50
2022-12-08T23:05:41.715Z,70.40
2022-12-08T23:08:11.988Z,70.40
2022-12-08T23:10:40.456Z,70.50
2022-12-08T23:13:07.372Z,70.40
2022-12-08T23:15:34.222Z,70.20
2022-12-08T23:18:01.160Z,70.40
2022-12-08T23:20:28.241Z,70.30
2022-12-08T23:22:55.244Z,70.30
2022-12-08T23:25:22.122Z,70.30
2022-12-08T23:27:49.022Z,70.30
2022-12-08T23:30:16.392Z,70.40
2022-12-08T23:32:43.400Z,70.60
2022-12-08T23:35:10.528Z,70.50
2022-12-08T23:37:37.719Z,70.40
2022-12-08T23:40:05.514Z,70.40
2022-12-08T23:42:33.021Z,70.50
2022-12-08T23:44:59.885Z,70.40
2022-12-08T23:47:27.037Z,70.50
2022-12-08T23:49:53.824Z,70.60
2022-12-08T23:52:20.635Z,70.50
2022-12-08T23:54:50.347Z,70.60
2022-12-08T23:57:17.339Z,70.60
2022-12-08T23:59:44.220Z,70.50
